PGT7XD ESSA-LTFJ
Flight info
| Callsign | PGT7XD |
|---|---|
| Flight time | N/A |
| Altitude | 33000 |
| Route | BABAP T316 NEPVA DCT PENOR/N0449F350 N133 LENOV DCT RAZEC DCT KEKED DCT BADOR DCT CONWI DCT LAMIT DCT TIMUR L606 ADORU UM19 IBODU |
| Aircraft | B738/M-SDE2E3FGHIRWXY/LB1 |
Departure
| Time | 2026-05-07 07:27 |
|---|---|
| Airport | Stockholm-Arlanda Airport (ESSA) |
Arrival
| Time | N/A |
|---|---|
| Airport | Istanbul Sabiha Gökçen International Airport (LTFJ) |
| Time | Latitude | Longitude | Altitude | Speed | Heading |
|---|---|---|---|---|---|
| 2026-05-07 07:13 | 59.65391 | 17.93802 | 110 ft | 0 kts | 255° |
| 2026-05-07 07:19 | 59.65393 | 17.93819 | 110 ft | 4 kts | 257° |
| 2026-05-07 07:20 | 59.65398 | 17.93871 | 110 ft | 4 kts | 267° |
| 2026-05-07 07:20 | 59.65397 | 17.93923 | 112 ft | 4 kts | 289° |
| 2026-05-07 07:20 | 59.65384 | 17.93960 | 111 ft | 3 kts | 343° |
| 2026-05-07 07:20 | 59.65382 | 17.93961 | 111 ft | 1 kts | 345° |
| 2026-05-07 07:22 | 59.65389 | 17.93958 | 111 ft | 5 kts | 345° |
| 2026-05-07 07:22 | 59.65458 | 17.93923 | 112 ft | 14 kts | 346° |
| 2026-05-07 07:22 | 59.65550 | 17.93877 | 111 ft | 13 kts | 346° |
| 2026-05-07 07:23 | 59.65638 | 17.93833 | 113 ft | 13 kts | 346° |
| 2026-05-07 07:23 | 59.65666 | 17.93692 | 113 ft | 13 kts | 256° |
| 2026-05-07 07:23 | 59.65642 | 17.93502 | 110 ft | 18 kts | 256° |
| 2026-05-07 07:23 | 59.65603 | 17.93195 | 107 ft | 28 kts | 256° |
| 2026-05-07 07:24 | 59.65553 | 17.92810 | 107 ft | 25 kts | 256° |
| 2026-05-07 07:24 | 59.65539 | 17.92540 | 103 ft | 17 kts | 306° |
| 2026-05-07 07:24 | 59.65647 | 17.92470 | 102 ft | 18 kts | 346° |
| 2026-05-07 07:24 | 59.65802 | 17.92438 | 104 ft | 23 kts | 8° |
| 2026-05-07 07:25 | 59.66160 | 17.92565 | 112 ft | 28 kts | 11° |
| 2026-05-07 07:25 | 59.66344 | 17.92632 | 118 ft | 26 kts | 10° |
| 2026-05-07 07:25 | 59.66519 | 17.92618 | 120 ft | 25 kts | 340° |
| 2026-05-07 07:26 | 59.66619 | 17.92466 | 124 ft | 18 kts | 269° |
| 2026-05-07 07:26 | 59.66526 | 17.92339 | 120 ft | 22 kts | 190° |
| 2026-05-07 07:26 | 59.66129 | 17.92193 | 117 ft | 93 kts | 190° |
| 2026-05-07 07:26 | 59.65292 | 17.91898 | 106 ft | 152 kts | 187° |
| 2026-05-07 07:27 | 59.64179 | 17.91471 | 568 ft | 167 kts | 193° |
| 2026-05-07 07:27 | 59.63064 | 17.91061 | 1409 ft | 166 kts | 182° |
| 2026-05-07 07:27 | 59.61898 | 17.90787 | 2070 ft | 178 kts | 186° |
| 2026-05-07 07:27 | 59.60556 | 17.90618 | 2350 ft | 206 kts | 177° |
| 2026-05-07 07:28 | 59.59181 | 17.91713 | 2568 ft | 228 kts | 137° |
| 2026-05-07 07:28 | 59.58096 | 17.94131 | 2908 ft | 246 kts | 130° |
| 2026-05-07 07:28 | 59.56949 | 17.96769 | 3471 ft | 258 kts | 131° |
| 2026-05-07 07:28 | 59.55767 | 17.99431 | 4361 ft | 259 kts | 131° |
| 2026-05-07 07:29 | 59.54563 | 18.02094 | 5220 ft | 262 kts | 131° |
| 2026-05-07 07:29 | 59.53325 | 18.04790 | 5962 ft | 269 kts | 132° |
| 2026-05-07 07:29 | 59.52051 | 18.07535 | 6719 ft | 273 kts | 132° |
| 2026-05-07 07:29 | 59.50746 | 18.10320 | 7427 ft | 280 kts | 133° |
| 2026-05-07 07:30 | 59.49408 | 18.13155 | 8204 ft | 283 kts | 134° |
| 2026-05-07 07:30 | 59.48056 | 18.16007 | 8964 ft | 288 kts | 134° |
| 2026-05-07 07:30 | 59.46672 | 18.18914 | 9680 ft | 294 kts | 135° |
| 2026-05-07 07:30 | 59.45262 | 18.21873 | 10365 ft | 300 kts | 135° |
| 2026-05-07 07:31 | 59.43812 | 18.24905 | 10920 ft | 310 kts | 136° |
| 2026-05-07 07:31 | 59.42293 | 18.28067 | 11334 ft | 323 kts | 136° |
| 2026-05-07 07:31 | 59.40760 | 18.31259 | 11992 ft | 329 kts | 136° |
| 2026-05-07 07:31 | 59.39157 | 18.34596 | 12686 ft | 335 kts | 136° |
| 2026-05-07 07:32 | 59.38971 | 18.34982 | 12749 ft | 335 kts | 136° |
| 2026-05-07 07:32 | 59.37453 | 18.38137 | 13424 ft | 338 kts | 136° |
| 2026-05-07 07:32 | 59.35809 | 18.41548 | 14130 ft | 342 kts | 136° |
| 2026-05-07 07:32 | 59.34191 | 18.44903 | 14768 ft | 344 kts | 136° |
| 2026-05-07 07:33 | 59.32518 | 18.48367 | 15448 ft | 347 kts | 137° |
| 2026-05-07 07:33 | 59.30848 | 18.51816 | 16060 ft | 351 kts | 137° |
| 2026-05-07 07:33 | 59.29182 | 18.55249 | 16692 ft | 354 kts | 137° |
| 2026-05-07 07:33 | 59.27430 | 18.58692 | 17231 ft | 358 kts | 146° |
| 2026-05-07 07:34 | 59.25264 | 18.60880 | 17867 ft | 348 kts | 169° |
| 2026-05-07 07:34 | 59.22902 | 18.61445 | 18569 ft | 339 kts | 187° |
| 2026-05-07 07:34 | 59.20551 | 18.61133 | 19128 ft | 340 kts | 190° |
| 2026-05-07 07:34 | 59.18178 | 18.60710 | 19607 ft | 345 kts | 190° |
| 2026-05-07 07:35 | 59.15778 | 18.60269 | 20135 ft | 348 kts | 190° |
| 2026-05-07 07:35 | 59.14175 | 18.59983 | 20500 ft | 350 kts | 190° |
| 2026-05-07 07:35 | 59.11751 | 18.59570 | 21110 ft | 350 kts | 190° |
| 2026-05-07 07:35 | 59.09322 | 18.59172 | 21678 ft | 352 kts | 190° |
| 2026-05-07 07:36 | 59.06865 | 18.58778 | 22200 ft | 355 kts | 190° |
| 2026-05-07 07:36 | 59.04391 | 18.58388 | 22700 ft | 358 kts | 190° |
| 2026-05-07 07:36 | 59.01905 | 18.58000 | 23262 ft | 359 kts | 190° |
| 2026-05-07 07:36 | 58.99406 | 18.57611 | 23763 ft | 362 kts | 190° |
| 2026-05-07 07:37 | 58.96890 | 18.57219 | 24187 ft | 364 kts | 191° |
| 2026-05-07 07:37 | 58.94360 | 18.56825 | 24624 ft | 365 kts | 191° |
| 2026-05-07 07:37 | 58.91854 | 18.56243 | 25141 ft | 360 kts | 197° |
| 2026-05-07 07:37 | 58.89412 | 18.55184 | 25562 ft | 360 kts | 199° |
| 2026-05-07 07:38 | 58.86968 | 18.54017 | 25928 ft | 363 kts | 200° |
| 2026-05-07 07:38 | 58.84512 | 18.52820 | 26317 ft | 365 kts | 200° |
| 2026-05-07 07:38 | 58.82048 | 18.51626 | 26743 ft | 366 kts | 199° |
| 2026-05-07 07:38 | 58.79575 | 18.50441 | 27150 ft | 367 kts | 199° |
| 2026-05-07 07:39 | 58.77088 | 18.49262 | 27534 ft | 369 kts | 199° |
| 2026-05-07 07:39 | 58.74586 | 18.48087 | 27921 ft | 371 kts | 199° |
| 2026-05-07 07:39 | 58.72077 | 18.46916 | 28318 ft | 372 kts | 199° |
| 2026-05-07 07:39 | 58.69556 | 18.45746 | 28683 ft | 374 kts | 199° |
| 2026-05-07 07:40 | 58.67021 | 18.44573 | 29032 ft | 376 kts | 199° |
| 2026-05-07 07:40 | 58.64508 | 18.43413 | 29374 ft | 377 kts | 199° |
| 2026-05-07 07:40 | 58.61948 | 18.42235 | 29710 ft | 379 kts | 199° |
| 2026-05-07 07:40 | 58.59346 | 18.41039 | 30068 ft | 380 kts | 199° |
| 2026-05-07 07:41 | 58.56806 | 18.39874 | 30350 ft | 382 kts | 199° |
| 2026-05-07 07:41 | 58.54209 | 18.38683 | 30525 ft | 385 kts | 199° |
| 2026-05-07 07:41 | 58.51594 | 18.37486 | 30737 ft | 388 kts | 199° |
| 2026-05-07 07:41 | 58.48966 | 18.36286 | 31011 ft | 389 kts | 199° |
| 2026-05-07 07:42 | 58.46333 | 18.35086 | 31282 ft | 390 kts | 199° |
| 2026-05-07 07:42 | 58.43690 | 18.33883 | 31511 ft | 392 kts | 199° |
| 2026-05-07 07:42 | 58.41026 | 18.32671 | 31699 ft | 395 kts | 199° |
| 2026-05-07 07:42 | 58.38350 | 18.31456 | 31906 ft | 397 kts | 199° |
| 2026-05-07 07:43 | 58.35660 | 18.30237 | 32143 ft | 398 kts | 199° |
| 2026-05-07 07:43 | 58.32955 | 18.29013 | 32290 ft | 401 kts | 199° |
| 2026-05-07 07:43 | 58.30230 | 18.27781 | 32453 ft | 404 kts | 199° |
| 2026-05-07 07:43 | 58.27492 | 18.26546 | 32632 ft | 405 kts | 198° |
| 2026-05-07 07:44 | 58.24748 | 18.25311 | 32909 ft | 405 kts | 198° |
| 2026-05-07 07:44 | 58.22007 | 18.24081 | 33063 ft | 407 kts | 198° |
| 2026-05-07 07:44 | 58.19245 | 18.22840 | 33068 ft | 409 kts | 198° |
| 2026-05-07 07:45 | 58.13718 | 18.20368 | 33061 ft | 405 kts | 198° |
| 2026-05-07 07:45 | 58.08266 | 18.17939 | 33063 ft | 402 kts | 198° |
| 2026-05-07 07:46 | 58.02827 | 18.15518 | 33056 ft | 401 kts | 198° |
| 2026-05-07 07:46 | 57.97435 | 18.13124 | 33051 ft | 401 kts | 198° |
| 2026-05-07 07:47 | 57.92005 | 18.10721 | 33056 ft | 401 kts | 198° |
| 2026-05-07 07:47 | 57.86554 | 18.08316 | 33054 ft | 403 kts | 198° |
| 2026-05-07 07:48 | 57.81087 | 18.05912 | 33051 ft | 404 kts | 198° |
| 2026-05-07 07:48 | 57.75602 | 18.03509 | 33051 ft | 405 kts | 198° |
| 2026-05-07 07:49 | 57.70105 | 18.01108 | 33059 ft | 406 kts | 198° |
| 2026-05-07 07:49 | 57.64590 | 17.98706 | 33054 ft | 407 kts | 198° |
| 2026-05-07 07:50 | 57.59062 | 17.96307 | 33053 ft | 408 kts | 198° |
| 2026-05-07 07:50 | 57.53525 | 17.93911 | 33054 ft | 409 kts | 197° |
| 2026-05-07 07:51 | 57.48016 | 17.91535 | 33047 ft | 409 kts | 197° |
| 2026-05-07 07:51 | 57.42467 | 17.89149 | 33051 ft | 409 kts | 197° |
| 2026-05-07 07:52 | 57.36923 | 17.86772 | 33047 ft | 409 kts | 197° |
| 2026-05-07 07:52 | 57.31385 | 17.84405 | 33043 ft | 408 kts | 197° |
| 2026-05-07 07:53 | 57.25857 | 17.82051 | 33043 ft | 407 kts | 197° |
| 2026-05-07 07:53 | 57.20338 | 17.79706 | 33012 ft | 407 kts | 197° |
| 2026-05-07 07:54 | 57.14828 | 17.77373 | 33040 ft | 406 kts | 197° |
| 2026-05-07 07:54 | 57.09325 | 17.75049 | 33048 ft | 405 kts | 197° |
| 2026-05-07 07:55 | 57.03824 | 17.72734 | 33043 ft | 406 kts | 197° |
| 2026-05-07 07:55 | 56.98323 | 17.70425 | 33048 ft | 406 kts | 197° |
| 2026-05-07 07:56 | 56.92819 | 17.68122 | 33028 ft | 406 kts | 197° |
| 2026-05-07 07:56 | 56.87316 | 17.65827 | 33043 ft | 406 kts | 197° |
| 2026-05-07 07:57 | 56.81842 | 17.63550 | 33048 ft | 406 kts | 197° |
| 2026-05-07 07:57 | 56.76322 | 17.61261 | 33044 ft | 407 kts | 197° |
| 2026-05-07 07:58 | 56.70792 | 17.58976 | 33044 ft | 408 kts | 197° |
| 2026-05-07 07:58 | 56.65256 | 17.56694 | 33037 ft | 408 kts | 197° |
| 2026-05-07 07:59 | 56.59724 | 17.54422 | 33044 ft | 408 kts | 197° |
| 2026-05-07 07:59 | 56.54182 | 17.52152 | 33047 ft | 408 kts | 197° |
| 2026-05-07 08:00 | 56.48640 | 17.49889 | 33046 ft | 408 kts | 197° |
| 2026-05-07 08:00 | 56.43099 | 17.47633 | 33042 ft | 408 kts | 197° |
| 2026-05-07 08:01 | 56.37559 | 17.45384 | 33045 ft | 408 kts | 197° |
| 2026-05-07 08:01 | 56.32024 | 17.43144 | 33040 ft | 407 kts | 197° |
| 2026-05-07 08:02 | 56.26495 | 17.40912 | 33038 ft | 407 kts | 197° |
| 2026-05-07 08:02 | 56.20973 | 17.38691 | 33031 ft | 406 kts | 197° |
| 2026-05-07 08:03 | 56.15502 | 17.36496 | 33003 ft | 405 kts | 197° |
| 2026-05-07 08:03 | 56.10017 | 17.34302 | 33022 ft | 403 kts | 197° |
| 2026-05-07 08:04 | 56.04549 | 17.32121 | 33033 ft | 402 kts | 197° |
| 2026-05-07 08:04 | 55.99096 | 17.29953 | 33031 ft | 401 kts | 197° |
| 2026-05-07 08:05 | 55.93655 | 17.27795 | 33029 ft | 400 kts | 197° |
| 2026-05-07 08:05 | 55.88226 | 17.25648 | 33020 ft | 399 kts | 197° |
| 2026-05-07 08:06 | 55.82802 | 17.23509 | 33033 ft | 399 kts | 197° |
| 2026-05-07 08:06 | 55.77383 | 17.21377 | 33032 ft | 399 kts | 197° |
| 2026-05-07 08:07 | 55.71960 | 17.19250 | 33031 ft | 399 kts | 197° |
| 2026-05-07 08:07 | 55.66494 | 17.17380 | 33016 ft | 405 kts | 187° |
| 2026-05-07 08:08 | 55.60828 | 17.18632 | 33012 ft | 419 kts | 169° |
| 2026-05-07 08:08 | 55.55410 | 17.22764 | 33021 ft | 426 kts | 161° |
| 2026-05-07 08:09 | 55.50040 | 17.27235 | 33024 ft | 427 kts | 161° |
| 2026-05-07 08:09 | 55.44689 | 17.31606 | 33021 ft | 427 kts | 162° |
| 2026-05-07 08:10 | 55.39255 | 17.35974 | 33015 ft | 427 kts | 162° |
| 2026-05-07 08:10 | 55.33889 | 17.40262 | 32993 ft | 426 kts | 162° |
| 2026-05-07 08:11 | 55.28496 | 17.44563 | 33012 ft | 425 kts | 162° |
| 2026-05-07 08:11 | 55.23111 | 17.48845 | 33007 ft | 425 kts | 162° |
| 2026-05-07 08:12 | 55.17723 | 17.53075 | 33009 ft | 424 kts | 162° |
| 2026-05-07 08:12 | 55.12321 | 17.57207 | 33010 ft | 424 kts | 162° |
| 2026-05-07 08:13 | 55.06924 | 17.61329 | 33007 ft | 423 kts | 162° |
| 2026-05-07 08:13 | 55.01527 | 17.65453 | 32994 ft | 423 kts | 162° |
| 2026-05-07 08:14 | 54.96141 | 17.69567 | 33004 ft | 423 kts | 162° |
| 2026-05-07 08:14 | 54.90781 | 17.73800 | 32998 ft | 423 kts | 161° |
| 2026-05-07 08:15 | 54.85433 | 17.78038 | 32993 ft | 423 kts | 161° |
| 2026-05-07 08:15 | 54.80111 | 17.82220 | 33002 ft | 422 kts | 162° |
| 2026-05-07 08:16 | 54.74753 | 17.86398 | 32997 ft | 422 kts | 162° |
| 2026-05-07 08:16 | 54.69388 | 17.90560 | 32997 ft | 423 kts | 162° |
| 2026-05-07 08:17 | 54.64019 | 17.94717 | 32996 ft | 423 kts | 162° |
| 2026-05-07 08:17 | 54.58648 | 17.98865 | 32990 ft | 423 kts | 162° |
| 2026-05-07 08:18 | 54.53273 | 18.03005 | 32977 ft | 423 kts | 162° |
| 2026-05-07 08:18 | 54.47906 | 18.07128 | 32975 ft | 422 kts | 162° |
| 2026-05-07 08:19 | 54.42549 | 18.11232 | 32975 ft | 421 kts | 162° |
| 2026-05-07 08:19 | 54.37195 | 18.15321 | 32965 ft | 420 kts | 162° |
| 2026-05-07 08:20 | 54.31856 | 18.19388 | 32967 ft | 420 kts | 162° |
| 2026-05-07 08:20 | 54.26556 | 18.23395 | 32967 ft | 419 kts | 162° |
| 2026-05-07 08:21 | 54.21225 | 18.27385 | 32971 ft | 418 kts | 162° |
| 2026-05-07 08:21 | 54.15900 | 18.31360 | 32947 ft | 417 kts | 163° |
| 2026-05-07 08:22 | 54.10587 | 18.35319 | 32951 ft | 417 kts | 163° |
| 2026-05-07 08:22 | 54.05276 | 18.39268 | 32960 ft | 416 kts | 163° |
| 2026-05-07 08:23 | 53.99968 | 18.43203 | 32963 ft | 416 kts | 163° |
| 2026-05-07 08:23 | 53.94657 | 18.47129 | 32956 ft | 416 kts | 163° |
| 2026-05-07 08:24 | 53.89345 | 18.51046 | 32957 ft | 416 kts | 163° |
| 2026-05-07 08:24 | 53.84031 | 18.54954 | 32955 ft | 416 kts | 163° |
| 2026-05-07 08:25 | 53.78751 | 18.58828 | 32915 ft | 416 kts | 163° |
| 2026-05-07 08:25 | 53.73449 | 18.62701 | 32940 ft | 415 kts | 163° |
| 2026-05-07 08:26 | 53.65506 | 18.68445 | 32947 ft | 414 kts | 163° |
| 2026-05-07 08:26 | 53.60217 | 18.72260 | 32948 ft | 413 kts | 163° |
| 2026-05-07 08:27 | 53.54933 | 18.76064 | 32938 ft | 413 kts | 163° |
| 2026-05-07 08:27 | 53.49615 | 18.79589 | 32940 ft | 408 kts | 168° |
| 2026-05-07 08:28 | 53.44210 | 18.82396 | 32939 ft | 406 kts | 169° |
| 2026-05-07 08:28 | 53.38805 | 18.85162 | 32901 ft | 406 kts | 169° |
| 2026-05-07 08:29 | 53.33424 | 18.87976 | 32920 ft | 405 kts | 169° |
| 2026-05-07 08:29 | 53.28049 | 18.90804 | 32933 ft | 405 kts | 169° |
| 2026-05-07 08:30 | 53.22680 | 18.93624 | 32926 ft | 404 kts | 169° |
| 2026-05-07 08:30 | 53.17317 | 18.96425 | 32928 ft | 404 kts | 169° |
| 2026-05-07 08:31 | 53.12858 | 18.98720 | 32929 ft | 403 kts | 169° |
| 2026-05-07 08:31 | 53.07497 | 19.01476 | 32928 ft | 403 kts | 169° |
| 2026-05-07 08:32 | 53.02137 | 19.04248 | 32928 ft | 403 kts | 169° |
| 2026-05-07 08:32 | 52.96775 | 19.07020 | 32926 ft | 403 kts | 169° |
| 2026-05-07 08:33 | 52.91420 | 19.09780 | 32932 ft | 403 kts | 169° |
| 2026-05-07 08:33 | 52.86063 | 19.12532 | 32923 ft | 403 kts | 169° |
| 2026-05-07 08:34 | 52.80694 | 19.15283 | 32933 ft | 406 kts | 169° |
| 2026-05-07 08:34 | 52.75239 | 19.18067 | 33169 ft | 413 kts | 169° |
| 2026-05-07 08:35 | 52.72496 | 19.19467 | 33473 ft | 412 kts | 169° |
| 2026-05-07 08:35 | 52.69766 | 19.20862 | 33843 ft | 410 kts | 169° |
| 2026-05-07 08:35 | 52.67048 | 19.22248 | 34095 ft | 409 kts | 169° |
| 2026-05-07 08:35 | 52.64323 | 19.23631 | 34239 ft | 411 kts | 169° |
| 2026-05-07 08:36 | 52.61584 | 19.25021 | 34355 ft | 413 kts | 169° |
| 2026-05-07 08:36 | 52.58831 | 19.26416 | 34539 ft | 414 kts | 169° |
| 2026-05-07 08:36 | 52.56081 | 19.27808 | 34742 ft | 414 kts | 169° |
| 2026-05-07 08:36 | 52.53325 | 19.29200 | 34885 ft | 415 kts | 169° |
| 2026-05-07 08:37 | 52.47766 | 19.31997 | 34911 ft | 420 kts | 169° |
| 2026-05-07 08:37 | 52.42186 | 19.34804 | 34911 ft | 418 kts | 169° |
| 2026-05-07 08:38 | 52.36633 | 19.37591 | 34911 ft | 416 kts | 168° |
| 2026-05-07 08:38 | 52.31101 | 19.40359 | 34913 ft | 415 kts | 168° |
| 2026-05-07 08:39 | 52.25588 | 19.43108 | 34911 ft | 414 kts | 169° |
| 2026-05-07 08:39 | 52.20089 | 19.45845 | 34909 ft | 413 kts | 169° |
| 2026-05-07 08:40 | 52.14630 | 19.48555 | 34908 ft | 413 kts | 169° |
| 2026-05-07 08:40 | 52.09137 | 19.51274 | 34909 ft | 412 kts | 169° |
| 2026-05-07 08:41 | 52.03610 | 19.54002 | 34906 ft | 412 kts | 169° |
| 2026-05-07 08:41 | 51.98153 | 19.56691 | 34906 ft | 413 kts | 169° |
| 2026-05-07 08:42 | 51.92657 | 19.59393 | 34907 ft | 413 kts | 169° |
| 2026-05-07 08:42 | 51.87154 | 19.62093 | 34908 ft | 413 kts | 169° |
| 2026-05-07 08:43 | 51.81644 | 19.64794 | 34911 ft | 414 kts | 169° |
| 2026-05-07 08:43 | 51.76141 | 19.67605 | 34909 ft | 415 kts | 167° |
| 2026-05-07 08:44 | 51.70654 | 19.70545 | 34897 ft | 415 kts | 167° |
| 2026-05-07 08:44 | 51.65165 | 19.73454 | 34883 ft | 415 kts | 167° |
| 2026-05-07 08:45 | 51.59674 | 19.76357 | 34887 ft | 415 kts | 167° |
| 2026-05-07 08:45 | 51.54182 | 19.79254 | 34893 ft | 416 kts | 167° |
| 2026-05-07 08:46 | 51.48680 | 19.82133 | 34874 ft | 416 kts | 167° |
| 2026-05-07 08:46 | 51.43175 | 19.84985 | 34882 ft | 416 kts | 167° |
| 2026-05-07 08:47 | 51.37682 | 19.87863 | 34876 ft | 415 kts | 167° |
| 2026-05-07 08:47 | 51.32190 | 19.90730 | 34876 ft | 415 kts | 167° |
| 2026-05-07 08:48 | 51.26697 | 19.93575 | 34846 ft | 414 kts | 167° |
| 2026-05-07 08:48 | 51.21214 | 19.96408 | 34863 ft | 414 kts | 167° |
| 2026-05-07 08:49 | 51.15729 | 19.99196 | 34871 ft | 414 kts | 167° |
| 2026-05-07 08:49 | 51.10244 | 20.01977 | 34872 ft | 414 kts | 167° |
| 2026-05-07 08:50 | 51.04760 | 20.04791 | 34870 ft | 414 kts | 167° |
| 2026-05-07 08:50 | 50.99277 | 20.07615 | 34874 ft | 414 kts | 167° |
| 2026-05-07 08:51 | 50.93791 | 20.10428 | 34867 ft | 414 kts | 167° |
| 2026-05-07 08:51 | 50.88308 | 20.13220 | 34878 ft | 414 kts | 167° |
| 2026-05-07 08:52 | 50.82819 | 20.15990 | 34881 ft | 414 kts | 167° |
| 2026-05-07 08:52 | 50.77320 | 20.18759 | 34881 ft | 415 kts | 167° |
| 2026-05-07 08:53 | 50.71813 | 20.21530 | 34879 ft | 416 kts | 167° |
| 2026-05-07 08:53 | 50.66298 | 20.24298 | 34881 ft | 416 kts | 167° |
| 2026-05-07 08:54 | 50.60825 | 20.27331 | 34881 ft | 418 kts | 164° |
| 2026-05-07 08:54 | 50.55393 | 20.30635 | 34887 ft | 419 kts | 164° |
| 2026-05-07 08:55 | 50.49944 | 20.33881 | 34889 ft | 419 kts | 164° |
| 2026-05-07 08:55 | 50.44495 | 20.37095 | 34882 ft | 418 kts | 164° |
| 2026-05-07 08:56 | 50.39044 | 20.40305 | 34892 ft | 418 kts | 164° |
| 2026-05-07 08:56 | 50.33587 | 20.43514 | 34884 ft | 419 kts | 164° |
| 2026-05-07 08:57 | 50.28166 | 20.46696 | 34884 ft | 419 kts | 164° |
| 2026-05-07 08:57 | 50.22710 | 20.49891 | 34897 ft | 419 kts | 164° |
| 2026-05-07 08:58 | 50.17253 | 20.53079 | 34889 ft | 419 kts | 164° |
| 2026-05-07 08:58 | 50.11796 | 20.56259 | 34864 ft | 419 kts | 164° |
| 2026-05-07 08:59 | 50.06339 | 20.59432 | 34883 ft | 419 kts | 164° |
| 2026-05-07 08:59 | 50.00882 | 20.62596 | 34895 ft | 419 kts | 164° |
| 2026-05-07 09:00 | 49.95418 | 20.65757 | 34893 ft | 419 kts | 164° |
| 2026-05-07 09:00 | 49.89944 | 20.68915 | 34888 ft | 420 kts | 164° |
| 2026-05-07 09:01 | 49.84459 | 20.72074 | 34896 ft | 421 kts | 164° |
| 2026-05-07 09:01 | 49.78957 | 20.75233 | 34901 ft | 422 kts | 164° |
| 2026-05-07 09:02 | 49.73441 | 20.78393 | 34897 ft | 423 kts | 164° |
| 2026-05-07 09:02 | 49.67917 | 20.81551 | 34901 ft | 424 kts | 164° |
| 2026-05-07 09:03 | 49.62384 | 20.84706 | 34919 ft | 425 kts | 164° |
| 2026-05-07 09:03 | 49.56832 | 20.87863 | 34918 ft | 426 kts | 164° |
| 2026-05-07 09:04 | 49.51265 | 20.91022 | 34918 ft | 427 kts | 164° |
| 2026-05-07 09:04 | 49.45692 | 20.94178 | 34918 ft | 427 kts | 164° |
| 2026-05-07 09:05 | 49.40113 | 20.97330 | 34903 ft | 427 kts | 164° |
| 2026-05-07 09:05 | 49.34534 | 21.00475 | 34923 ft | 427 kts | 164° |
| 2026-05-07 09:06 | 49.28851 | 21.02891 | 34924 ft | 422 kts | 171° |
| 2026-05-07 09:06 | 49.23127 | 21.04883 | 34952 ft | 422 kts | 171° |
| 2026-05-07 09:07 | 49.17407 | 21.06943 | 34945 ft | 423 kts | 171° |
| 2026-05-07 09:07 | 49.11680 | 21.09041 | 34936 ft | 424 kts | 171° |
| 2026-05-07 09:08 | 49.05937 | 21.11038 | 34942 ft | 423 kts | 171° |
| 2026-05-07 09:08 | 49.00196 | 21.12972 | 34931 ft | 422 kts | 172° |
| 2026-05-07 09:09 | 48.94449 | 21.14910 | 34946 ft | 423 kts | 171° |
| 2026-05-07 09:09 | 48.88700 | 21.16857 | 34965 ft | 423 kts | 171° |
| 2026-05-07 09:10 | 48.82947 | 21.18804 | 34966 ft | 424 kts | 171° |
| 2026-05-07 09:10 | 48.77179 | 21.20751 | 34968 ft | 425 kts | 171° |
| 2026-05-07 09:11 | 48.71402 | 21.22697 | 34968 ft | 426 kts | 171° |